sensor_id;sensor_type;location;lat;lon;timestamp;pressure;altitude;pressure_sealevel;temperature;humidity
15050;BME280;7622;42.724;23.250;2023-05-01T00:01:51;94653.50;;;11.94;100.00
15050;BME280;7622;42.724;23.250;2023-05-01T00:04:22;94652.47;;;11.87;100.00
15050;BME280;7622;42.724;23.250;2023-05-01T00:06:49;94653.03;;;11.98;100.00
15050;BME280;7622;42.724;23.250;2023-05-01T00:09:17;94661.88;;;12.05;100.00
15050;BME280;7622;42.724;23.250;2023-05-01T00:11:44;94662.41;;;11.91;100.00
15050;BME280;7622;42.724;23.250;2023-05-01T00:14:11;94642.72;;;11.71;100.00
15050;BME280;7622;42.724;23.250;2023-05-01T00:16:38;94650.91;;;11.76;100.00
15050;BME280;7622;42.724;23.250;2023-05-01T00:19:04;94653.66;;;11.57;100.00
15050;BME280;7622;42.724;23.250;2023-05-01T00:21:32;94647.13;;;11.53;100.00
15050;BME280;7622;42.724;23.250;2023-05-01T00:23:59;94660.03;;;11.62;100.00
15050;BME280;7622;42.724;23.250;2023-05-01T00:26:27;94653.66;;;11.57;100.00
15050;BME280;7622;42.724;23.250;2023-05-01T00:28:55;94652.28;;;11.70;100.00
15050;BME280;7622;42.724;23.250;2023-05-01T00:31:23;94655.75;;;11.53;100.00
15050;BME280;7622;42.724;23.250;2023-05-01T00:33:51;94652.47;;;11.51;100.00
15050;BME280;7622;42.724;23.250;2023-05-01T00:36:20;94661.84;;;11.44;100.00
15050;BME280;7622;42.724;23.250;2023-05-01T00:38:49;94661.59;;;11.37;100.00
15050;BME280;7622;42.724;23.250;2023-05-01T00:41:15;94662.28;;;11.39;100.00
15050;BME280;7622;42.724;23.250;2023-05-01T00:43:44;94661.88;;;11.34;100.00
15050;BME280;7622;42.724;23.250;2023-05-01T00:46:10;94658.41;;;11.43;100.00
15050;BME280;7622;42.724;23.250;2023-05-01T00:48:37;94664.34;;;11.36;100.00
15050;BME280;7622;42.724;23.250;2023-05-01T00:51:06;94677.13;;;11.29;100.00
15050;BME280;7622;42.724;23.250;2023-05-01T00:53:33;94672.25;;;11.26;100.00
15050;BME280;7622;42.724;23.250;2023-05-01T00:56:00;94677.72;;;11.23;100.00
15050;BME280;7622;42.724;23.250;2023-05-01T00:58:28;94672.66;;;11.22;100.00
15050;BME280;7622;42.724;23.250;2023-05-01T01:00:57;94680.59;;;11.20;100.00
15050;BME280;7622;42.724;23.250;2023-05-01T01:03:24;94677.63;;;11.15;100.00
15050;BME280;7622;42.724;23.250;2023-05-01T01:05:55;94683.56;;;11.07;100.00
15050;BME280;7622;42.724;23.250;2023-05-01T01:08:28;94684.47;;;11.16;100.00
15050;BME280;7622;42.724;23.250;2023-05-01T01:11:02;94684.81;;;11.03;100.00
15050;BME280;7622;42.724;23.250;2023-05-01T01:13:32;94683.13;;;11.12;100.00
15050;BME280;7622;42.724;23.250;2023-05-01T01:16:08;94688.38;;;11.02;100.00
15050;BME280;7622;42.724;23.250;2023-05-01T01:18:42;94689.72;;;11.06;100.00
15050;BME280;7622;42.724;23.250;2023-05-01T01:21:17;94695.00;;;10.87;100.00
15050;BME280;7622;42.724;23.250;2023-05-01T01:24:16;94692.81;;;10.92;100.00
15050;BME280;7622;42.724;23.250;2023-05-01T01:29:49;94694.13;;;11.06;100.00
15050;BME280;7622;42.724;23.250;2023-05-01T01:32:40;94705.53;;;10.86;100.00
15050;BME280;7622;42.724;23.250;2023-05-01T01:35:17;94710.56;;;10.97;100.00
15050;BME280;7622;42.724;23.250;2023-05-01T01:37:50;94709.84;;;10.77;100.00
15050;BME280;7622;42.724;23.250;2023-05-01T01:40:23;94705.81;;;10.55;100.00
15050;BME280;7622;42.724;23.250;2023-05-01T01:42:55;94706.91;;;10.62;100.00
15050;BME280;7622;42.724;23.250;2023-05-01T01:45:29;94703.94;;;10.48;100.00
15050;BME280;7622;42.724;23.250;2023-05-01T01:47:58;94637.63;;;10.07;100.00
15050;BME280;7622;42.724;23.250;2023-05-01T01:50:28;94700.38;;;10.49;100.00
15050;BME280;7622;42.724;23.250;2023-05-01T01:52:59;94701.22;;;10.49;100.00
15050;BME280;7622;42.724;23.250;2023-05-01T01:55:29;94697.59;;;10.60;100.00
15050;BME280;7622;42.724;23.250;2023-05-01T01:57:58;94697.34;;;10.53;100.00
15050;BME280;7622;42.724;23.250;2023-05-01T02:00:26;94700.84;;;10.72;100.00
15050;BME280;7622;42.724;23.250;2023-05-01T02:02:54;94705.47;;;10.78;100.00
15050;BME280;7622;42.724;23.250;2023-05-01T02:05:23;94698.16;;;10.63;100.00
15050;BME280;7622;42.724;23.250;2023-05-01T02:07:53;94702.22;;;10.66;100.00
15050;BME280;7622;42.724;23.250;2023-05-01T02:10:21;94690.63;;;10.60;100.00
15050;BME280;7622;42.724;23.250;2023-05-01T02:12:50;94678.25;;;10.45;100.00
15050;BME280;7622;42.724;23.250;2023-05-01T02:15:18;94692.03;;;10.55;100.00
15050;BME280;7622;42.724;23.250;2023-05-01T02:17:46;94624.78;;;10.15;100.00
15050;BME280;7622;42.724;23.250;2023-05-01T02:20:14;94679.63;;;10.39;100.00
15050;BME280;7622;42.724;23.250;2023-05-01T02:22:42;94677.13;;;10.57;100.00
15050;BME280;7622;42.724;23.250;2023-05-01T02:25:12;94682.59;;;10.54;100.00
15050;BME280;7622;42.724;23.250;2023-05-01T02:27:45;94687.81;;;10.81;100.00
15050;BME280;7622;42.724;23.250;2023-05-01T02:30:13;94686.59;;;10.76;100.00
15050;BME280;7622;42.724;23.250;2023-05-01T02:32:40;94686.13;;;10.62;100.00
15050;BME280;7622;42.724;23.250;2023-05-01T02:35:07;94693.34;;;10.59;100.00
15050;BME280;7622;42.724;23.250;2023-05-01T02:37:34;94688.28;;;10.67;100.00
15050;BME280;7622;42.724;23.250;2023-05-01T02:40:02;94686.97;;;10.53;100.00
15050;BME280;7622;42.724;23.250;2023-05-01T02:42:31;94689.19;;;10.39;100.00
15050;BME280;7622;42.724;23.250;2023-05-01T02:45:02;94698.38;;;10.23;100.00
15050;BME280;7622;42.724;23.250;2023-05-01T02:47:31;94693.06;;;10.15;100.00
15050;BME280;7622;42.724;23.250;2023-05-01T02:49:59;94697.94;;;10.38;100.00
15050;BME280;7622;42.724;23.250;2023-05-01T02:52:27;94694.16;;;10.13;100.00
15050;BME280;7622;42.724;23.250;2023-05-01T02:54:54;94696.06;;;10.30;100.00
15050;BME280;7622;42.724;23.250;2023-05-01T02:57:22;94698.53;;;10.03;100.00
15050;BME280;7622;42.724;23.250;2023-05-01T02:59:50;94698.53;;;10.03;100.00
15050;BME280;7622;42.724;23.250;2023-05-01T03:02:17;94713.56;;;9.89;100.00
15050;BME280;7622;42.724;23.250;2023-05-01T03:04:44;94701.56;;;10.08;100.00
15050;BME280;7622;42.724;23.250;2023-05-01T03:07:11;94703.88;;;9.92;100.00
15050;BME280;7622;42.724;23.250;2023-05-01T03:09:38;94686.25;;;10.05;100.00
15050;BME280;7622;42.724;23.250;2023-05-01T03:12:05;94696.91;;;10.02;100.00
15050;BME280;7622;42.724;23.250;2023-05-01T03:14:32;94691.59;;;9.94;100.00
15050;BME280;7622;42.724;23.250;2023-05-01T03:17:00;94701.59;;;9.88;100.00
15050;BME280;7622;42.724;23.250;2023-05-01T03:19:27;94713.88;;;9.67;100.00
15050;BME280;7622;42.724;23.250;2023-05-01T03:21:54;94706.47;;;9.24;100.00
15050;BME280;7622;42.724;23.250;2023-05-01T03:24:22;94715.13;;;8.85;100.00
15050;BME280;7622;42.724;23.250;2023-05-01T03:26:49;94704.19;;;8.81;100.00
15050;BME280;7622;42.724;23.250;2023-05-01T03:29:16;94713.72;;;8.81;100.00
15050;BME280;7622;42.724;23.250;2023-05-01T03:31:43;94718.44;;;8.66;100.00
15050;BME280;7622;42.724;23.250;2023-05-01T03:34:11;94721.63;;;8.79;100.00
15050;BME280;7622;42.724;23.250;2023-05-01T03:36:37;94717.38;;;8.68;100.00
15050;BME280;7622;42.724;23.250;2023-05-01T03:39:04;94722.78;;;8.96;100.00
15050;BME280;7622;42.724;23.250;2023-05-01T03:41:32;94726.28;;;8.85;100.00
15050;BME280;7622;42.724;23.250;2023-05-01T03:43:59;94730.44;;;9.07;100.00
15050;BME280;7622;42.724;23.250;2023-05-01T03:46:26;94726.88;;;8.98;100.00
15050;BME280;7622;42.724;23.250;2023-05-01T03:48:53;94729.06;;;9.03;100.00
15050;BME280;7622;42.724;23.250;2023-05-01T03:51:21;94733.03;;;9.07;100.00
15050;BME280;7622;42.724;23.250;2023-05-01T03:53:48;94735.56;;;9.47;100.00
15050;BME280;7622;42.724;23.250;2023-05-01T03:56:15;94732.44;;;9.53;100.00
15050;BME280;7622;42.724;23.250;2023-05-01T03:58:42;94743.34;;;9.85;100.00
15050;BME280;7622;42.724;23.250;2023-05-01T04:01:09;94736.13;;;10.08;100.00
15050;BME280;7622;42.724;23.250;2023-05-01T04:03:35;94751.81;;;10.36;100.00
15050;BME280;7622;42.724;23.250;2023-05-01T04:06:03;94751.25;;;10.42;100.00
15050;BME280;7622;42.724;23.250;2023-05-01T04:08:31;94751.81;;;10.73;100.00
15050;BME280;7622;42.724;23.250;2023-05-01T04:10:58;94751.81;;;10.73;100.00
15050;BME280;7622;42.724;23.250;2023-05-01T04:13:25;94751.78;;;10.45;100.00
15050;BME280;7622;42.724;23.250;2023-05-01T04:15:52;94750.66;;;10.94;100.00
15050;BME280;7622;42.724;23.250;2023-05-01T04:18:21;94746.28;;;11.22;100.00
15050;BME280;7622;42.724;23.250;2023-05-01T04:20:48;94737.97;;;11.36;100.00
15050;BME280;7622;42.724;23.250;2023-05-01T04:23:15;94750.19;;;11.09;100.00
15050;BME280;7622;42.724;23.250;2023-05-01T04:25:43;94747.56;;;10.81;100.00
15050;BME280;7622;42.724;23.250;2023-05-01T04:28:11;94752.53;;;11.02;100.00
15050;BME280;7622;42.724;23.250;2023-05-01T04:30:37;94753.47;;;11.11;100.00
15050;BME280;7622;42.724;23.250;2023-05-01T04:33:04;94763.06;;;11.28;100.00
15050;BME280;7622;42.724;23.250;2023-05-01T04:35:35;94755.44;;;11.26;100.00
15050;BME280;7622;42.724;23.250;2023-05-01T04:38:03;94761.03;;;11.31;100.00
15050;BME280;7622;42.724;23.250;2023-05-01T04:40:30;94759.25;;;11.50;100.00
15050;BME280;7622;42.724;23.250;2023-05-01T04:42:59;94759.03;;;11.88;100.00
15050;BME280;7622;42.724;23.250;2023-05-01T04:45:25;94762.19;;;12.17;100.00
15050;BME280;7622;42.724;23.250;2023-05-01T04:47:52;94758.09;;;12.33;100.00
15050;BME280;7622;42.724;23.250;2023-05-01T04:50:19;94752.28;;;12.39;100.00
15050;BME280;7622;42.724;23.250;2023-05-01T04:52:46;94752.69;;;12.78;100.00
15050;BME280;7622;42.724;23.250;2023-05-01T04:55:13;94758.38;;;13.33;100.00
15050;BME280;7622;42.724;23.250;2023-05-01T04:57:39;94760.69;;;14.43;100.00
15050;BME280;7622;42.724;23.250;2023-05-01T05:00:09;94769.09;;;15.49;100.00
15050;BME280;7622;42.724;23.250;2023-05-01T05:02:36;94758.78;;;16.32;100.00
15050;BME280;7622;42.724;23.250;2023-05-01T05:05:03;94768.72;;;16.59;95.21
15050;BME280;7622;42.724;23.250;2023-05-01T05:07:29;94772.50;;;16.79;95.52
15050;BME280;7622;42.724;23.250;2023-05-01T05:09:56;94774.72;;;16.68;97.12
15050;BME280;7622;42.724;23.250;2023-05-01T05:12:23;94781.03;;;16.36;100.00
15050;BME280;7622;42.724;23.250;2023-05-01T05:14:50;94787.38;;;16.41;99.19
15050;BME280;7622;42.724;23.250;2023-05-01T05:17:18;94787.44;;;16.10;100.00
15050;BME280;7622;42.724;23.250;2023-05-01T05:19:45;94786.25;;;16.81;92.89
15050;BME280;7622;42.724;23.250;2023-05-01T05:22:12;94790.91;;;16.26;97.05
15050;BME280;7622;42.724;23.250;2023-05-01T05:24:38;94790.38;;;16.53;94.95
15050;BME280;7622;42.724;23.250;2023-05-01T05:27:05;94790.06;;;16.33;95.26
15050;BME280;7622;42.724;23.250;2023-05-01T05:29:32;94796.41;;;16.39;97.66
15050;BME280;7622;42.724;23.250;2023-05-01T05:31:59;94803.16;;;16.79;92.15
15050;BME280;7622;42.724;23.250;2023-05-01T05:34:27;94796.25;;;17.01;88.35
15050;BME280;7622;42.724;23.250;2023-05-01T05:36:54;94800.78;;;17.65;81.90
15050;BME280;7622;42.724;23.250;2023-05-01T05:39:21;94801.84;;;16.98;85.31
15050;BME280;7622;42.724;23.250;2023-05-01T05:41:48;94806.13;;;17.28;84.67
15050;BME280;7622;42.724;23.250;2023-05-01T05:44:14;94808.38;;;17.16;85.68
15050;BME280;7622;42.724;23.250;2023-05-01T05:46:41;94806.94;;;17.14;87.63
15050;BME280;7622;42.724;23.250;2023-05-01T05:49:08;94801.47;;;17.15;86.99
15050;BME280;7622;42.724;23.250;2023-05-01T05:51:36;94807.84;;;17.80;80.14
15050;BME280;7622;42.724;23.250;2023-05-01T05:54:03;94803.47;;;17.57;79.73
15050;BME280;7622;42.724;23.250;2023-05-01T05:56:30;94813.41;;;18.27;74.14
15050;BME280;7622;42.724;23.250;2023-05-01T05:58:56;94804.72;;;18.27;75.23
15050;BME280;7622;42.724;23.250;2023-05-01T06:01:27;94814.28;;;18.13;75.37
15050;BME280;7622;42.724;23.250;2023-05-01T06:03:54;94805.13;;;18.45;73.81
15050;BME280;7622;42.724;23.250;2023-05-01T06:06:21;94821.38;;;18.34;74.22
15050;BME280;7622;42.724;23.250;2023-05-01T06:08:49;94822.31;;;18.47;74.03
15050;BME280;7622;42.724;23.250;2023-05-01T06:11:16;94811.94;;;18.61;72.83
15050;BME280;7622;42.724;23.250;2023-05-01T06:13:43;94821.28;;;18.84;72.53
15050;BME280;7622;42.724;23.250;2023-05-01T06:16:09;94828.63;;;18.68;75.61
15050;BME280;7622;42.724;23.250;2023-05-01T06:18:36;94823.59;;;18.94;79.41
15050;BME280;7622;42.724;23.250;2023-05-01T06:21:03;94823.09;;;18.84;72.49
15050;BME280;7622;42.724;23.250;2023-05-01T06:23:30;94823.22;;;18.76;74.09
15050;BME280;7622;42.724;23.250;2023-05-01T06:25:59;94823.34;;;18.89;71.66
15050;BME280;7622;42.724;23.250;2023-05-01T06:28:26;94817.69;;;18.92;72.15
15050;BME280;7622;42.724;23.250;2023-05-01T06:30:53;94818.28;;;18.87;73.94
15050;BME280;7622;42.724;23.250;2023-05-01T06:33:20;94823.56;;;18.87;74.49
15050;BME280;7622;42.724;23.250;2023-05-01T06:35:47;94825.25;;;19.02;72.69
15050;BME280;7622;42.724;23.250;2023-05-01T06:38:14;94829.28;;;19.88;69.34
15050;BME280;7622;42.724;23.250;2023-05-01T06:40:41;94831.19;;;19.10;71.38
15050;BME280;7622;42.724;23.250;2023-05-01T06:43:12;94830.19;;;19.67;69.44
15050;BME280;7622;42.724;23.250;2023-05-01T06:45:39;94827.28;;;19.96;67.61
15050;BME280;7622;42.724;23.250;2023-05-01T06:48:06;94833.84;;;19.73;69.94
15050;BME280;7622;42.724;23.250;2023-05-01T06:50:33;94823.56;;;20.32;65.72
15050;BME280;7622;42.724;23.250;2023-05-01T06:53:00;94818.97;;;20.54;63.85
15050;BME280;7622;42.724;23.250;2023-05-01T06:55:27;94821.00;;;20.71;62.56
15050;BME280;7622;42.724;23.250;2023-05-01T06:57:55;94820.19;;;20.64;62.54
15050;BME280;7622;42.724;23.250;2023-05-01T07:00:23;94829.38;;;20.95;61.60
15050;BME280;7622;42.724;23.250;2023-05-01T07:02:50;94827.72;;;21.07;60.62
15050;BME280;7622;42.724;23.250;2023-05-01T07:05:17;94825.28;;;20.99;60.82
15050;BME280;7622;42.724;23.250;2023-05-01T07:07:44;94827.31;;;21.10;59.30
15050;BME280;7622;42.724;23.250;2023-05-01T07:10:11;94828.16;;;21.17;58.39
15050;BME280;7622;42.724;23.250;2023-05-01T07:12:37;94828.94;;;21.44;57.55
15050;BME280;7622;42.724;23.250;2023-05-01T07:15:06;94815.91;;;21.55;57.00
15050;BME280;7622;42.724;23.250;2023-05-01T07:17:34;94833.00;;;21.40;57.75
15050;BME280;7622;42.724;23.250;2023-05-01T07:20:01;94836.31;;;22.06;55.82
15050;BME280;7622;42.724;23.250;2023-05-01T07:22:29;94832.63;;;21.36;57.00
15050;BME280;7622;42.724;23.250;2023-05-01T07:24:56;94835.84;;;21.12;58.25
15050;BME280;7622;42.724;23.250;2023-05-01T07:27:23;94839.31;;;21.45;57.26
15050;BME280;7622;42.724;23.250;2023-05-01T07:29:51;94831.94;;;21.74;55.19
15050;BME280;7622;42.724;23.250;2023-05-01T07:32:20;94837.38;;;22.43;54.46
15050;BME280;7622;42.724;23.250;2023-05-01T07:34:50;94836.69;;;22.16;54.66
15050;BME280;7622;42.724;23.250;2023-05-01T07:37:17;94838.72;;;22.59;53.73
15050;BME280;7622;42.724;23.250;2023-05-01T07:39:44;94827.47;;;23.01;52.97
15050;BME280;7622;42.724;23.250;2023-05-01T07:42:10;94823.34;;;23.05;52.16
15050;BME280;7622;42.724;23.250;2023-05-01T07:44:37;94839.53;;;23.65;50.95
15050;BME280;7622;42.724;23.250;2023-05-01T07:47:04;94832.38;;;23.47;51.71
15050;BME280;7622;42.724;23.250;2023-05-01T07:49:34;94827.41;;;23.08;52.38
15050;BME280;7622;42.724;23.250;2023-05-01T07:52:03;94834.41;;;23.45;51.53
15050;BME280;7622;42.724;23.250;2023-05-01T07:54:31;94832.19;;;23.49;51.50
15050;BME280;7622;42.724;23.250;2023-05-01T07:56:58;94838.97;;;24.18;50.04
15050;BME280;7622;42.724;23.250;2023-05-01T07:59:26;94838.16;;;23.81;50.10
15050;BME280;7622;42.724;23.250;2023-05-01T08:01:53;94830.28;;;23.56;50.35
15050;BME280;7622;42.724;23.250;2023-05-01T08:04:20;94819.75;;;23.68;49.34
15050;BME280;7622;42.724;23.250;2023-05-01T08:06:47;94834.13;;;23.97;48.35
15050;BME280;7622;42.724;23.250;2023-05-01T08:09:15;94836.94;;;24.20;48.53
15050;BME280;7622;42.724;23.250;2023-05-01T08:11:42;94830.75;;;24.26;48.30
15050;BME280;7622;42.724;23.250;2023-05-01T08:14:08;94820.91;;;24.86;47.34
15050;BME280;7622;42.724;23.250;2023-05-01T08:16:35;94821.66;;;24.63;47.36
15050;BME280;7622;42.724;23.250;2023-05-01T08:19:02;94839.78;;;24.00;46.86
15050;BME280;7622;42.724;23.250;2023-05-01T08:21:29;94834.47;;;23.64;48.00
15050;BME280;7622;42.724;23.250;2023-05-01T08:23:56;94834.19;;;23.90;47.39
15050;BME280;7622;42.724;23.250;2023-05-01T08:26:24;94834.34;;;23.77;46.83
15050;BME280;7622;42.724;23.250;2023-05-01T08:28:51;94830.16;;;24.06;47.36
15050;BME280;7622;42.724;23.250;2023-05-01T08:31:18;94828.66;;;24.28;47.15
15050;BME280;7622;42.724;23.250;2023-05-01T08:33:45;94827.63;;;24.47;46.09
15050;BME280;7622;42.724;23.250;2023-05-01T08:36:12;94822.03;;;24.67;44.86
15050;BME280;7622;42.724;23.250;2023-05-01T08:38:39;94819.38;;;24.79;44.91
15050;BME280;7622;42.724;23.250;2023-05-01T08:41:05;94817.28;;;25.10;44.93
15050;BME280;7622;42.724;23.250;2023-05-01T08:43:34;94822.25;;;25.07;44.82
15050;BME280;7622;42.724;23.250;2023-05-01T08:46:03;94835.66;;;25.12;44.34
15050;BME280;7622;42.724;23.250;2023-05-01T08:48:34;94822.47;;;24.64;44.31
15050;BME280;7622;42.724;23.250;2023-05-01T08:51:03;94814.16;;;24.42;44.21
15050;BME280;7622;42.724;23.250;2023-05-01T08:53:31;94814.63;;;24.39;46.19
15050;BME280;7622;42.724;23.250;2023-05-01T08:55:59;94808.66;;;24.85;46.16
15050;BME280;7622;42.724;23.250;2023-05-01T08:58:26;94802.13;;;25.11;45.96
15050;BME280;7622;42.724;23.250;2023-05-01T09:00:55;94810.16;;;25.23;45.38
15050;BME280;7622;42.724;23.250;2023-05-01T09:03:26;94815.22;;;25.47;44.67
15050;BME280;7622;42.724;23.250;2023-05-01T09:05:54;94807.44;;;25.11;44.45
15050;BME280;7622;42.724;23.250;2023-05-01T09:08:21;94804.72;;;25.29;43.99
15050;BME280;7622;42.724;23.250;2023-05-01T09:10:48;94800.19;;;25.06;44.75
15050;BME280;7622;42.724;23.250;2023-05-01T09:13:18;94810.22;;;24.93;43.50
15050;BME280;7622;42.724;23.250;2023-05-01T09:15:45;94813.94;;;25.15;43.41
15050;BME280;7622;42.724;23.250;2023-05-01T09:18:13;94813.47;;;25.18;42.80
15050;BME280;7622;42.724;23.250;2023-05-01T09:20:40;94811.13;;;24.57;43.13
15050;BME280;7622;42.724;23.250;2023-05-01T09:23:07;94813.25;;;24.66;43.91
15050;BME280;7622;42.724;23.250;2023-05-01T09:25:34;94802.38;;;25.21;43.56
15050;BME280;7622;42.724;23.250;2023-05-01T09:28:03;94821.94;;;25.27;43.17
15050;BME280;7622;42.724;23.250;2023-05-01T09:30:32;94831.44;;;23.60;43.90
15050;BME280;7622;42.724;23.250;2023-05-01T09:33:06;94828.97;;;23.83;44.31
15050;BME280;7622;42.724;23.250;2023-05-01T09:35:49;94820.84;;;24.33;44.22
15050;BME280;7622;42.724;23.250;2023-05-01T09:38:17;94815.06;;;24.54;44.44
15050;BME280;7622;42.724;23.250;2023-05-01T09:40:44;94816.78;;;23.94;45.68
15050;BME280;7622;42.724;23.250;2023-05-01T09:43:12;94812.06;;;24.32;44.68
15050;BME280;7622;42.724;23.250;2023-05-01T09:45:40;94812.13;;;24.44;44.09
15050;BME280;7622;42.724;23.250;2023-05-01T09:48:08;94803.72;;;24.89;43.94
15050;BME280;7622;42.724;23.250;2023-05-01T09:50:36;94803.41;;;25.20;43.43
15050;BME280;7622;42.724;23.250;2023-05-01T09:53:05;94816.84;;;24.84;43.84
15050;BME280;7622;42.724;23.250;2023-05-01T09:55:33;94802.38;;;25.21;42.72
15050;BME280;7622;42.724;23.250;2023-05-01T09:58:01;94806.66;;;25.45;42.66
15050;BME280;7622;42.724;23.250;2023-05-01T10:00:27;94801.00;;;25.77;42.05
15050;BME280;7622;42.724;23.250;2023-05-01T10:02:54;94793.47;;;25.74;43.59
15050;BME280;7622;42.724;23.250;2023-05-01T10:05:21;94797.28;;;25.31;45.19
15050;BME280;7622;42.724;23.250;2023-05-01T10:07:56;94790.56;;;24.94;45.43
15050;BME280;7622;42.724;23.250;2023-05-01T10:10:24;94792.88;;;24.30;46.02
15050;BME280;7622;42.724;23.250;2023-05-01T10:12:51;94795.75;;;24.29;45.61
15050;BME280;7622;42.724;23.250;2023-05-01T10:15:19;94795.88;;;24.34;45.27
15050;BME280;7622;42.724;23.250;2023-05-01T10:17:48;94791.78;;;24.38;45.22
15050;BME280;7622;42.724;23.250;2023-05-01T10:20:15;94805.78;;;24.09;46.07
15050;BME280;7622;42.724;23.250;2023-05-01T10:22:42;94801.53;;;23.89;45.74
15050;BME280;7622;42.724;23.250;2023-05-01T10:25:10;94800.50;;;24.27;45.29
15050;BME280;7622;42.724;23.250;2023-05-01T10:27:39;94800.34;;;24.82;44.45
15050;BME280;7622;42.724;23.250;2023-05-01T10:30:07;94800.47;;;24.57;44.41
15050;BME280;7622;42.724;23.250;2023-05-01T10:32:36;94786.16;;;24.28;44.64
15050;BME280;7622;42.724;23.250;2023-05-01T10:35:07;94787.84;;;23.92;45.63
15050;BME280;7622;42.724;23.250;2023-05-01T10:37:38;94785.50;;;24.32;44.64
15050;BME280;7622;42.724;23.250;2023-05-01T10:40:43;94798.22;;;23.58;45.13
15050;BME280;7622;42.724;23.250;2023-05-01T10:43:19;94782.84;;;23.23;44.14
15050;BME280;7622;42.724;23.250;2023-05-01T10:45:50;94793.72;;;23.76;43.82
15050;BME280;7622;42.724;23.250;2023-05-01T10:48:52;94805.38;;;23.57;42.86
15050;BME280;7622;42.724;23.250;2023-05-01T10:51:21;94784.81;;;23.71;41.67
15050;BME280;7622;42.724;23.250;2023-05-01T10:53:48;94790.59;;;23.43;41.96
15050;BME280;7622;42.724;23.250;2023-05-01T10:56:39;94782.84;;;23.23;42.34
15050;BME280;7622;42.724;23.250;2023-05-01T10:59:08;94792.59;;;24.02;42.30
15050;BME280;7622;42.724;23.250;2023-05-01T11:01:38;94792.53;;;24.09;40.85
15050;BME280;7622;42.724;23.250;2023-05-01T11:04:06;94784.22;;;23.87;41.29
15050;BME280;7622;42.724;23.250;2023-05-01T11:06:34;94777.66;;;23.53;42.00
15050;BME280;7622;42.724;23.250;2023-05-01T11:09:37;94777.66;;;23.53;41.60
15050;BME280;7622;42.724;23.250;2023-05-01T11:12:06;94782.94;;;24.08;41.24
15050;BME280;7622;42.724;23.250;2023-05-01T11:15:03;94780.56;;;24.18;41.48
15050;BME280;7622;42.724;23.250;2023-05-01T11:17:44;94791.75;;;23.72;40.97
15050;BME280;7622;42.724;23.250;2023-05-01T11:20:12;94790.41;;;23.38;41.29
15050;BME280;7622;42.724;23.250;2023-05-01T11:22:44;94795.63;;;23.87;40.95
15050;BME280;7622;42.724;23.250;2023-05-01T11:25:18;94773.84;;;23.85;41.27
15050;BME280;7622;42.724;23.250;2023-05-01T11:27:47;94782.06;;;23.95;42.04
15050;BME280;7622;42.724;23.250;2023-05-01T11:30:15;94734.56;;;23.76;41.46
15050;BME280;7622;42.724;23.250;2023-05-01T11:32:43;94778.06;;;24.23;44.11
15050;BME280;7622;42.724;23.250;2023-05-01T11:35:16;94760.81;;;24.85;41.05
15050;BME280;7622;42.724;23.250;2023-05-01T11:37:43;94769.38;;;24.87;40.80
15050;BME280;7622;42.724;23.250;2023-05-01T11:40:20;94779.44;;;24.44;41.52
15050;BME280;7622;42.724;23.250;2023-05-01T11:42:48;94762.50;;;22.92;39.32
15050;BME280;7622;42.724;23.250;2023-05-01T11:45:17;94773.22;;;22.41;40.84
15050;BME280;7622;42.724;23.250;2023-05-01T11:47:44;94773.75;;;22.25;42.06
15050;BME280;7622;42.724;23.250;2023-05-01T11:50:11;94767.94;;;22.41;41.76
15050;BME280;7622;42.724;23.250;2023-05-01T11:52:43;94755.97;;;22.63;41.90
15050;BME280;7622;42.724;23.250;2023-05-01T11:55:10;94756.38;;;23.16;41.35
15050;BME280;7622;42.724;23.250;2023-05-01T11:57:47;94768.38;;;23.80;40.27
15050;BME280;7622;42.724;23.250;2023-05-01T12:00:24;94758.09;;;23.29;40.22
15050;BME280;7622;42.724;23.250;2023-05-01T12:02:55;94763.72;;;22.65;41.39
15050;BME280;7622;42.724;23.250;2023-05-01T12:05:23;94757.41;;;22.66;41.96
15050;BME280;7622;42.724;23.250;2023-05-01T12:07:50;94759.50;;;22.89;42.11
15050;BME280;7622;42.724;23.250;2023-05-01T12:10:17;94761.97;;;22.84;41.65
15050;BME280;7622;42.724;23.250;2023-05-01T12:12:44;94762.22;;;22.75;41.80
15050;BME280;7622;42.724;23.250;2023-05-01T12:15:11;94766.09;;;22.80;41.32
15050;BME280;7622;42.724;23.250;2023-05-01T12:17:39;94766.03;;;22.23;41.59
15050;BME280;7622;42.724;23.250;2023-05-01T12:20:10;94767.88;;;21.65;43.88
15050;BME280;7622;42.724;23.250;2023-05-01T12:22:47;94761.50;;;21.02;46.49
15050;BME280;7622;42.724;23.250;2023-05-01T12:25:15;94773.88;;;20.55;47.73
15050;BME280;7622;42.724;23.250;2023-05-01T12:27:42;94775.78;;;20.14;48.21
15050;BME280;7622;42.724;23.250;2023-05-01T12:30:10;94785.53;;;20.20;48.46
15050;BME280;7622;42.724;23.250;2023-05-01T12:32:40;94777.22;;;20.16;48.51
15050;BME280;7622;42.724;23.250;2023-05-01T12:35:13;94781.31;;;19.71;50.08
15050;BME280;7622;42.724;23.250;2023-05-01T12:37:41;94772.09;;;19.47;50.62
15050;BME280;7622;42.724;23.250;2023-05-01T12:40:12;94789.41;;;19.28;51.52
15050;BME280;7622;42.724;23.250;2023-05-01T12:42:39;94776.31;;;19.07;52.05
15050;BME280;7622;42.724;23.250;2023-05-01T12:45:07;94782.78;;;19.11;52.56
15050;BME280;7622;42.724;23.250;2023-05-01T12:47:40;94784.47;;;19.19;51.57
15050;BME280;7622;42.724;23.250;2023-05-01T12:50:08;94772.13;;;19.54;50.36
15050;BME280;7622;42.724;23.250;2023-05-01T12:52:35;94776.31;;;19.42;52.62
15050;BME280;7622;42.724;23.250;2023-05-01T12:55:03;94757.88;;;19.42;55.70
15050;BME280;7622;42.724;23.250;2023-05-01T12:57:30;94764.81;;;19.49;51.78
15050;BME280;7622;42.724;23.250;2023-05-01T12:59:58;94765.44;;;19.58;51.08
15050;BME280;7622;42.724;23.250;2023-05-01T13:02:29;94770.66;;;19.92;49.94
15050;BME280;7622;42.724;23.250;2023-05-01T13:05:09;94752.78;;;19.81;50.37
15050;BME280;7622;42.724;23.250;2023-05-01T13:07:36;94788.00;;;19.67;47.46
15050;BME280;7622;42.724;23.250;2023-05-01T13:10:05;94784.72;;;19.58;48.86